createdAt,value
2022-10-30T00:01:43.937Z,37.65
2022-10-30T00:06:45.709Z,32.80
2022-10-30T00:11:47.359Z,36.85
2022-10-30T00:16:49.030Z,31.23
2022-10-30T00:21:50.687Z,34.72
2022-10-30T00:26:52.382Z,32.58
2022-10-30T00:31:54.052Z,35.90
2022-10-30T00:36:55.705Z,28.05
2022-10-30T00:41:57.441Z,38.92
2022-10-30T00:47:04.441Z,33.00
2022-10-30T00:52:09.645Z,28.42
2022-10-30T00:57:11.439Z,29.95
2022-10-30T01:02:13.369Z,40.20
2022-10-30T01:07:16.720Z,36.05
2022-10-30T01:12:18.384Z,33.78
2022-10-30T01:18:03.715Z,41.00
2022-10-30T01:23:27.124Z,30.48
2022-10-30T01:29:07.296Z,39.20
2022-10-30T01:34:21.272Z,34.97
2022-10-30T01:39:27.027Z,34.00
2022-10-30T01:44:32.283Z,35.95
2022-10-30T01:49:50.030Z,32.47
2022-10-30T01:55:18.232Z,25.42
2022-10-30T02:00:21.426Z,28.58
2022-10-30T02:05:43.273Z,26.23
2022-10-30T02:10:47.881Z,27.88
2022-10-30T02:15:50.419Z,28.20
2022-10-30T02:20:54.080Z,24.77
2022-10-30T02:25:55.768Z,22.60
2022-10-30T02:30:57.780Z,26.20
2022-10-30T02:35:59.562Z,25.45
2022-10-30T02:41:01.317Z,21.15
2022-10-30T02:46:04.147Z,29.20
2022-10-30T02:51:06.139Z,21.95
2022-10-30T02:56:10.319Z,25.45
2022-10-30T03:01:16.379Z,22.20
2022-10-30T03:06:18.821Z,33.38
2022-10-30T03:11:21.058Z,21.35
2022-10-30T03:16:25.597Z,16.40
2022-10-30T03:21:28.324Z,29.67
2022-10-30T03:26:29.997Z,29.35
2022-10-30T03:31:38.739Z,17.95
2022-10-30T03:36:53.830Z,21.08
2022-10-30T03:41:56.135Z,23.35
2022-10-30T03:46:58.588Z,26.90
2022-10-30T03:52:14.557Z,19.65
2022-10-30T03:57:16.288Z,27.95
2022-10-30T04:02:33.040Z,28.52
2022-10-30T04:07:34.757Z,24.17
2022-10-30T04:12:38.128Z,24.33
2022-10-30T04:17:39.892Z,22.55
2022-10-30T04:22:41.806Z,18.83
2022-10-30T04:27:44.791Z,20.95
2022-10-30T04:32:53.530Z,23.25
2022-10-30T04:37:56.686Z,24.80
2022-10-30T04:42:59.138Z,26.08
2022-10-30T04:48:06.642Z,25.75
2022-10-30T04:53:13.867Z,21.42
2022-10-30T04:58:16.281Z,17.27
2022-10-30T05:03:23.631Z,17.17
2022-10-30T05:08:25.459Z,21.05
2022-10-30T05:13:27.574Z,21.70
2022-10-30T05:18:29.317Z,24.50
2022-10-30T05:23:31.067Z,20.85
2022-10-30T05:28:32.946Z,17.27
2022-10-30T05:33:35.051Z,22.48
2022-10-30T05:38:36.995Z,24.33
2022-10-30T05:43:41.781Z,25.38
2022-10-30T05:48:43.558Z,22.05
2022-10-30T05:53:48.193Z,25.65
2022-10-30T05:58:50.404Z,20.75
2022-10-30T06:03:52.256Z,20.08
2022-10-30T06:08:54.038Z,18.75
2022-10-30T06:14:12.216Z,14.95
2022-10-30T06:19:25.523Z,16.30
2022-10-30T06:24:31.828Z,17.38
2022-10-30T06:29:54.868Z,16.52
2022-10-30T06:34:56.658Z,21.17
2022-10-30T06:39:59.291Z,19.55
2022-10-30T06:45:21.374Z,14.48
2022-10-30T06:50:24.273Z,19.17
2022-10-30T06:55:26.280Z,23.48
2022-10-30T07:00:41.142Z,18.17
2022-10-30T07:05:56.008Z,16.23
2022-10-30T07:10:58.712Z,15.88
2022-10-30T07:16:11.957Z,16.08
2022-10-30T07:21:17.093Z,13.07
2022-10-30T07:26:18.883Z,24.15
2022-10-30T07:31:34.855Z,13.23
2022-10-30T07:37:04.089Z,21.45
2022-10-30T07:42:18.104Z,15.60
2022-10-30T07:47:45.333Z,17.08
2022-10-30T07:53:07.317Z,15.73
2022-10-30T07:58:09.041Z,13.38
2022-10-30T08:03:24.574Z,23.58
2022-10-30T08:08:46.529Z,17.30
2022-10-30T08:13:56.166Z,17.20
2022-10-30T08:18:58.366Z,16.27
2022-10-30T08:24:00.563Z,16.25
2022-10-30T08:29:05.222Z,17.42
2022-10-30T08:34:07.223Z,21.38
2022-10-30T08:39:16.832Z,16.23
2022-10-30T08:44:32.155Z,15.30
2022-10-30T08:50:08.381Z,14.52
2022-10-30T08:55:12.242Z,18.63
2022-10-30T09:00:14.300Z,18.48
2022-10-30T09:05:34.358Z,17.80
2022-10-30T09:10:58.664Z,15.20
2022-10-30T09:16:02.711Z,15.65
2022-10-30T09:21:07.320Z,20.17
2022-10-30T09:26:20.770Z,15.55
2022-10-30T09:31:38.999Z,10.85
2022-10-30T09:36:44.083Z,15.73
2022-10-30T09:42:06.992Z,11.32
2022-10-30T09:47:42.582Z,11.23
2022-10-30T09:53:28.962Z,14.65
2022-10-30T09:58:52.742Z,19.33
2022-10-30T10:04:25.639Z,10.95
2022-10-30T10:09:49.015Z,11.77
2022-10-30T10:15:31.138Z,10.65
2022-10-30T10:20:41.488Z,14.57
2022-10-30T10:25:52.091Z,11.75
2022-10-30T10:31:06.331Z,14.55
2022-10-30T10:36:30.947Z,12.02
2022-10-30T10:41:35.279Z,13.73
2022-10-30T10:46:57.584Z,15.52
2022-10-30T10:52:09.059Z,12.80
2022-10-30T10:57:24.467Z,11.43
2022-10-30T11:03:00.950Z,13.93
2022-10-30T11:08:21.726Z,18.42
2022-10-30T11:13:28.318Z,15.60
2022-10-30T11:18:29.977Z,19.92
2022-10-30T11:23:42.131Z,14.88
2022-10-30T11:29:04.985Z,16.52
2022-10-30T11:34:37.010Z,18.88
2022-10-30T11:39:38.664Z,24.50
2022-10-30T11:44:45.003Z,12.98
2022-10-30T11:49:53.848Z,12.98
2022-10-30T11:55:10.444Z,11.05
2022-10-30T12:00:24.014Z,15.52
2022-10-30T12:05:25.634Z,12.15
2022-10-30T12:10:30.357Z,13.50
2022-10-30T12:15:37.429Z,15.85
2022-10-30T12:20:39.284Z,17.45
2022-10-30T12:25:47.519Z,12.73
2022-10-30T12:31:03.749Z,14.23
2022-10-30T12:36:19.088Z,17.15
2022-10-30T12:41:32.932Z,16.73
2022-10-30T12:46:53.361Z,12.50
2022-10-30T12:52:07.641Z,13.52
2022-10-30T12:57:15.052Z,12.63
2022-10-30T13:02:23.934Z,16.90
2022-10-30T13:07:38.760Z,17.08
2022-10-30T13:12:43.096Z,13.80
2022-10-30T13:17:44.756Z,16.58
2022-10-30T13:22:49.194Z,13.88
2022-10-30T13:28:17.692Z,14.48
2022-10-30T13:33:45.036Z,20.48
2022-10-30T13:38:46.659Z,14.32
2022-10-30T13:44:27.279Z,11.40
2022-10-30T13:49:40.798Z,12.75
2022-10-30T13:54:48.281Z,24.23
2022-10-30T14:00:16.158Z,19.63
2022-10-30T14:05:36.722Z,17.42
2022-10-30T14:10:45.717Z,20.40
2022-10-30T14:15:47.581Z,20.55
2022-10-30T14:20:54.575Z,18.67
2022-10-30T14:26:02.217Z,15.32
2022-10-30T14:31:10.294Z,19.23
2022-10-30T14:36:18.240Z,22.75
2022-10-30T14:41:26.935Z,16.33
2022-10-30T14:46:41.635Z,21.67
2022-10-30T14:52:04.587Z,23.67
2022-10-30T14:57:21.054Z,19.67
2022-10-30T15:02:37.739Z,27.75
2022-10-30T15:07:57.649Z,23.90
2022-10-30T15:13:22.660Z,26.40
2022-10-30T15:18:26.852Z,29.20
2022-10-30T15:23:35.827Z,27.98
2022-10-30T15:28:40.351Z,27.52
2022-10-30T15:33:41.996Z,23.35
2022-10-30T15:38:43.646Z,22.27
2022-10-30T15:43:45.477Z,22.48
2022-10-30T15:48:48.036Z,28.33
2022-10-30T15:53:53.046Z,38.42
2022-10-30T15:59:00.244Z,35.45
2022-10-30T16:04:01.890Z,33.60
2022-10-30T16:09:04.625Z,31.17
2022-10-30T16:14:15.268Z,29.75
2022-10-30T16:19:19.545Z,32.17
2022-10-30T16:24:29.630Z,32.38
2022-10-30T16:29:32.407Z,34.75
2022-10-30T16:34:35.788Z,34.83
2022-10-30T16:39:38.349Z,38.30
2022-10-30T16:44:40.083Z,34.30
2022-10-30T16:49:48.636Z,31.05
2022-10-30T16:55:18.859Z,34.67
2022-10-30T17:00:26.045Z,36.65
2022-10-30T17:05:34.272Z,30.67
2022-10-30T17:10:55.733Z,38.15
2022-10-30T17:15:57.888Z,39.78
2022-10-30T17:21:08.424Z,50.55
2022-10-30T17:26:11.473Z,40.55
2022-10-30T17:31:20.417Z,45.72
2022-10-30T17:36:22.094Z,49.78
2022-10-30T17:41:23.815Z,45.97
2022-10-30T17:46:25.557Z,47.88
2022-10-30T17:51:29.214Z,45.75
2022-10-30T17:56:33.676Z,44.10
2022-10-30T18:01:35.513Z,40.60
2022-10-30T18:06:37.256Z,47.55
2022-10-30T18:11:39.047Z,51.63
2022-10-30T18:16:40.741Z,46.85
2022-10-30T18:21:42.380Z,48.20
2022-10-30T18:26:44.593Z,49.33
2022-10-30T18:31:46.303Z,41.22
2022-10-30T18:36:48.574Z,47.30
2022-10-30T18:41:50.314Z,64.45
2022-10-30T18:46:52.188Z,59.03
2022-10-30T18:51:53.844Z,68.72
2022-10-30T18:56:55.476Z,51.50
2022-10-30T19:01:57.300Z,50.70
2022-10-30T19:06:59.022Z,54.67
2022-10-30T19:12:00.752Z,59.15
2022-10-30T19:17:02.457Z,59.70
2022-10-30T19:22:04.128Z,52.45
2022-10-30T19:27:05.775Z,60.40
2022-10-30T19:32:07.418Z,61.47
2022-10-30T19:37:09.558Z,61.45
2022-10-30T19:42:11.210Z,62.20
2022-10-30T19:47:12.866Z,56.33
2022-10-30T19:52:15.972Z,57.58
2022-10-30T20:02:20.784Z,54.08
2022-10-30T20:07:22.480Z,44.78
2022-10-30T20:12:24.285Z,57.78
2022-10-30T20:17:25.953Z,51.05
2022-10-30T20:22:28.512Z,55.25
2022-10-30T20:27:30.245Z,48.58
2022-10-30T20:32:31.925Z,49.35
2022-10-30T20:37:33.613Z,59.63
2022-10-30T20:42:37.370Z,52.67
2022-10-30T20:47:39.628Z,57.15
2022-10-30T20:52:41.905Z,49.92
2022-10-30T20:57:43.737Z,51.17
2022-10-30T21:02:45.490Z,49.03
2022-10-30T21:07:47.186Z,52.10
2022-10-30T21:12:48.935Z,49.45
2022-10-30T21:17:51.294Z,45.28
2022-10-30T21:22:52.940Z,44.13
2022-10-30T21:27:57.019Z,67.22
2022-10-30T21:32:59.586Z,65.68
2022-10-30T21:38:01.789Z,39.63
2022-10-30T21:43:04.597Z,49.15
2022-10-30T21:48:06.763Z,42.35
2022-10-30T21:53:08.606Z,46.67
2022-10-30T21:58:10.255Z,41.50
2022-10-30T22:03:11.941Z,53.90
2022-10-30T22:08:13.624Z,31.63
2022-10-30T22:13:15.373Z,35.53
2022-10-30T22:18:17.028Z,34.45
2022-10-30T22:23:18.721Z,36.28
2022-10-30T22:28:20.374Z,33.15
2022-10-30T22:33:22.082Z,36.63
2022-10-30T22:38:23.742Z,28.50
2022-10-30T22:43:25.418Z,29.08
2022-10-30T22:48:27.083Z,31.70
2022-10-30T22:53:30.426Z,35.40
2022-10-30T22:58:32.084Z,26.83
2022-10-30T23:03:33.793Z,20.88
2022-10-30T23:08:36.457Z,17.30
2022-10-30T23:13:38.450Z,20.00
2022-10-30T23:18:40.501Z,20.17
2022-10-30T23:23:43.490Z,17.50
2022-10-30T23:28:46.372Z,13.02
2022-10-30T23:33:49.135Z,18.63
2022-10-30T23:38:55.313Z,20.60
2022-10-30T23:43:59.109Z,16.45
2022-10-30T23:49:00.874Z,15.65
2022-10-30T23:54:02.777Z,19.27
2022-10-30T23:59:04.443Z,20.88
